Time;durP1;ratioP1;P1;durP2;ratioP2;P2;SDS_P1;SDS_P2;PMS_P1;PMS_P2;Temp;Humidity;BMP_temperature;BMP_pressure;BME280_temperature;BME280_humidity;BME280_pressure;Samples;Min_cycle;Max_cycle;Signal;HPM_P1;HPM_P2
2023/03/23 00:01:30;;;;;;;0.20;0.20;;;10.00;99.90;;;;;;5071452;28;20445;-76
2023/03/23 00:03:58;;;;;;;0.20;0.20;;;10.00;99.90;;;;;;5067148;28;20476;-77
2023/03/23 00:06:26;;;;;;;0.20;0.20;;;10.10;99.90;;;;;;5065005;28;20443;-77
2023/03/23 00:08:59;;;;;;;0.20;0.20;;;10.00;99.90;;;;;;5048168;28;20444;-77
2023/03/23 00:11:28;;;;;;;0.13;0.13;;;10.00;99.90;;;;;;5050452;28;20965;-76
2023/03/23 00:13:57;;;;;;;0.20;0.20;;;10.10;99.90;;;;;;5069274;28;20464;-77
2023/03/23 00:16:31;;;;;;;0.20;0.20;;;10.10;99.90;;;;;;5066758;22;20821;-76
2023/03/23 00:19:03;;;;;;;0.20;0.20;;;10.10;99.90;;;;;;5032794;28;20445;-77
2023/03/23 00:21:42;;;;;;;0.10;0.10;;;10.10;99.90;;;;;;5046041;28;20446;-76
2023/03/23 00:24:17;;;;;;;0.20;0.20;;;10.10;99.90;;;;;;5051183;28;20523;-77
2023/03/23 00:26:45;;;;;;;0.20;0.20;;;10.10;99.90;;;;;;5110745;23;20579;-77
2023/03/23 00:29:14;;;;;;;0.20;0.20;;;10.10;99.90;;;;;;5030154;28;20841;-79
2023/03/23 00:31:47;;;;;;;0.20;0.20;;;10.10;99.90;;;;;;5031558;28;20496;-76
2023/03/23 00:34:24;;;;;;;0.20;0.20;;;10.10;99.90;;;;;;5030483;28;20450;-77
2023/03/23 00:36:53;;;;;;;0.20;0.20;;;10.10;99.90;;;;;;5057875;23;21154;-77
2023/03/23 00:39:19;;;;;;;0.20;0.20;;;10.10;99.90;;;;;;5000358;28;20534;-79
2023/03/23 00:41:46;;;;;;;0.10;0.10;;;10.10;99.90;;;;;;5027380;28;20486;-79
2023/03/23 00:44:40;;;;;;;0.20;0.20;;;10.10;99.90;;;;;;5009369;28;20850;-77
2023/03/23 00:47:08;;;;;;;0.10;0.10;;;10.20;99.90;;;;;;5006487;28;20894;-77
2023/03/23 00:49:36;;;;;;;0.20;0.20;;;10.20;99.90;;;;;;5022384;28;21000;-79
2023/03/23 00:52:11;;;;;;;0.20;0.20;;;10.10;99.90;;;;;;5016536;28;20466;-75
2023/03/23 00:54:37;;;;;;;0.20;0.20;;;10.10;99.90;;;;;;5031071;28;20998;-78
2023/03/23 00:57:03;;;;;;;0.10;0.10;;;10.10;99.90;;;;;;5012898;28;20441;-75
2023/03/23 00:59:29;;;;;;;0.20;0.20;;;10.10;99.90;;;;;;5030113;28;20263;-78
2023/03/23 01:01:55;;;;;;;0.10;0.10;;;10.00;99.90;;;;;;5012164;28;20537;-78
2023/03/23 01:04:21;;;;;;;0.10;0.10;;;10.00;99.90;;;;;;5029777;28;20257;-78
2023/03/23 01:06:56;;;;;;;0.20;0.20;;;9.90;99.90;;;;;;5029036;28;20454;-77
2023/03/23 01:09:21;;;;;;;0.20;0.20;;;9.90;99.90;;;;;;5028394;28;20438;-75
2023/03/23 01:11:50;;;;;;;0.20;0.20;;;9.80;99.90;;;;;;5023501;28;20539;-75
2023/03/23 01:14:18;;;;;;;0.20;0.20;;;9.90;99.90;;;;;;5023307;28;20237;-78
2023/03/23 01:16:44;;;;;;;0.20;0.20;;;9.70;99.90;;;;;;5030285;28;20896;-78
2023/03/23 01:19:10;;;;;;;0.20;0.20;;;9.90;99.90;;;;;;5026582;28;20525;-78
2023/03/23 01:21:39;;;;;;;0.10;0.10;;;9.70;99.90;;;;;;5027760;28;20496;-77
2023/03/23 01:24:06;;;;;;;0.20;0.20;;;9.60;99.90;;;;;;5030334;28;20524;-75
2023/03/23 01:26:31;;;;;;;0.20;0.20;;;9.60;99.90;;;;;;5031069;28;20422;-75
2023/03/23 01:28:57;;;;;;;0.20;0.20;;;9.70;99.90;;;;;;5028986;28;20450;-78
2023/03/23 01:31:26;;;;;;;0.20;0.20;;;9.60;99.90;;;;;;5029924;28;20198;-78
2023/03/23 01:33:55;;;;;;;0.20;0.20;;;9.60;99.90;;;;;;5030433;28;20867;-78
2023/03/23 01:36:28;;;;;;;0.20;0.20;;;9.60;99.90;;;;;;5040063;28;21079;-78
2023/03/23 01:38:55;;;;;;;0.20;0.20;;;9.50;99.90;;;;;;5048588;28;20471;-78
2023/03/23 01:41:21;;;;;;;0.20;0.20;;;9.40;99.90;;;;;;5050099;28;20436;-78
2023/03/23 01:43:54;;;;;;;0.20;0.20;;;9.40;99.90;;;;;;5046862;28;20619;-78
2023/03/23 01:46:30;;;;;;;0.20;0.20;;;9.50;99.90;;;;;;5049980;28;20452;-79
2023/03/23 01:48:57;;;;;;;0.20;0.20;;;9.30;99.90;;;;;;5047416;28;21022;-75
2023/03/23 01:51:25;;;;;;;0.20;0.20;;;9.40;99.90;;;;;;5038949;28;20458;-75
2023/03/23 01:54:03;;;;;;;0.20;0.20;;;9.40;99.90;;;;;;5042761;28;20873;-78
2023/03/23 01:56:44;;;;;;;0.20;0.20;;;9.30;99.90;;;;;;5046161;28;20437;-77
2023/03/23 01:59:10;;;;;;;0.20;0.20;;;9.40;99.90;;;;;;5048645;28;20837;-77
2023/03/23 02:01:36;;;;;;;0.20;0.20;;;9.30;99.90;;;;;;5050223;28;20440;-78
2023/03/23 02:04:02;;;;;;;0.20;0.20;;;9.30;99.90;;;;;;5048749;28;20480;-75
2023/03/23 02:06:28;;;;;;;0.20;0.20;;;9.30;99.90;;;;;;5050485;28;20178;-77
2023/03/23 02:09:17;;;;;;;0.10;0.10;;;9.30;99.90;;;;;;5045986;28;20440;-76
2023/03/23 02:11:43;;;;;;;0.20;0.20;;;9.30;99.90;;;;;;5030500;28;20164;-77
2023/03/23 02:14:08;;;;;;;0.20;0.20;;;9.30;99.90;;;;;;5019776;28;20543;-77
2023/03/23 02:16:34;;;;;;;0.20;0.20;;;9.20;99.90;;;;;;5046459;28;20471;-77
2023/03/23 02:19:15;;;;;;;0.20;0.20;;;9.20;99.90;;;;;;5031130;28;20194;-77
2023/03/23 02:22:14;;;;;;;0.20;0.20;;;9.30;99.90;;;;;;5030830;28;20229;-76
2023/03/23 02:25:02;;;;;;;0.20;0.20;;;9.30;99.90;;;;;;5039459;28;20535;-77
2023/03/23 02:28:22;;;;;;;0.20;0.20;;;9.30;99.90;;;;;;5037600;28;20522;-76
2023/03/23 02:31:01;;;;;;;0.20;0.20;;;9.40;99.90;;;;;;4964630;28;20461;-77
2023/03/23 02:33:36;;;;;;;0.20;0.20;;;9.40;99.90;;;;;;4968123;28;20460;-74
2023/03/23 02:36:29;;;;;;;0.20;0.20;;;9.40;99.90;;;;;;5025878;28;20507;-75
2023/03/23 02:39:11;;;;;;;0.20;0.20;;;9.10;99.90;;;;;;5033807;28;20433;-77
2023/03/23 02:41:49;;;;;;;0.20;0.20;;;9.20;99.90;;;;;;5033840;28;20492;-77
2023/03/23 02:44:16;;;;;;;0.20;0.20;;;9.30;99.90;;;;;;5031906;28;20507;-76
2023/03/23 02:46:43;;;;;;;0.20;0.20;;;9.20;99.90;;;;;;5048578;28;20483;-76
2023/03/23 02:49:11;;;;;;;0.20;0.20;;;9.20;99.90;;;;;;5042424;28;20453;-76
2023/03/23 02:51:39;;;;;;;0.20;0.20;;;9.20;99.90;;;;;;5050409;28;20794;-76
2023/03/23 02:54:25;;;;;;;0.20;0.20;;;9.30;99.90;;;;;;5045570;28;20843;-77
2023/03/23 02:56:52;;;;;;;0.10;0.10;;;9.10;99.90;;;;;;5038941;28;20525;-77
2023/03/23 02:59:18;;;;;;;0.20;0.20;;;9.30;99.90;;;;;;5039533;28;20528;-77
2023/03/23 03:01:43;;;;;;;0.20;0.20;;;9.20;99.90;;;;;;5025287;28;20528;-77
2023/03/23 03:04:31;;;;;;;0.20;0.20;;;9.20;99.90;;;;;;5046735;28;20313;-77
2023/03/23 03:07:54;;;;;;;0.20;0.20;;;9.10;99.90;;;;;;5051600;28;20195;-77
2023/03/23 03:10:40;;;;;;;0.20;0.20;;;9.10;99.90;;;;;;4972394;28;20473;-74
2023/03/23 03:13:31;;;;;;;0.20;0.20;;;9.20;99.90;;;;;;5053426;28;20460;-76
2023/03/23 03:16:09;;;;;;;0.10;0.10;;;9.10;99.90;;;;;;5032703;28;20477;-77
2023/03/23 03:18:45;;;;;;;0.20;0.20;;;9.00;99.90;;;;;;5050536;28;20443;-77
2023/03/23 03:21:25;;;;;;;0.20;0.20;;;9.00;99.90;;;;;;5052535;28;21011;-77
2023/03/23 03:23:54;;;;;;;0.20;0.20;;;9.10;99.90;;;;;;5064834;22;20500;-77
2023/03/23 03:26:21;;;;;;;0.20;0.20;;;9.10;99.90;;;;;;5065110;28;20447;-77
2023/03/23 03:28:48;;;;;;;0.20;0.20;;;8.90;99.90;;;;;;5067883;28;20506;-77
2023/03/23 03:31:37;;;;;;;0.20;0.20;;;9.00;99.90;;;;;;5062392;28;20481;-77
2023/03/23 03:34:03;;;;;;;0.20;0.20;;;9.10;99.90;;;;;;5157354;23;20554;-78
2023/03/23 03:36:34;;;;;;;0.20;0.20;;;9.00;99.90;;;;;;5051391;28;20483;-78
2023/03/23 03:39:04;;;;;;;0.20;0.20;;;9.10;99.90;;;;;;5040659;28;20539;-76
2023/03/23 03:41:45;;;;;;;0.20;0.20;;;8.90;99.90;;;;;;5054331;28;20429;-75
2023/03/23 03:44:11;;;;;;;0.10;0.10;;;8.90;99.90;;;;;;5052541;28;20595;-78
2023/03/23 03:46:37;;;;;;;0.20;0.20;;;9.00;99.90;;;;;;5050950;28;20445;-78
2023/03/23 03:49:06;;;;;;;0.20;0.20;;;8.90;99.90;;;;;;5048391;28;20481;-78
2023/03/23 03:51:33;;;;;;;0.20;0.20;;;8.90;99.90;;;;;;5048257;28;20448;-78
2023/03/23 03:54:07;;;;;;;0.20;0.20;;;9.00;99.90;;;;;;5049441;28;20587;-75
2023/03/23 03:56:35;;;;;;;0.20;0.20;;;8.80;99.90;;;;;;5050207;28;20437;-78
2023/03/23 03:59:02;;;;;;;0.20;0.20;;;8.90;99.90;;;;;;5045406;23;20480;-78
2023/03/23 04:01:28;;;;;;;0.20;0.20;;;8.90;99.90;;;;;;5071936;28;20533;-78
2023/03/23 04:03:54;;;;;;;0.20;0.20;;;8.80;99.90;;;;;;5072264;28;20480;-77
2023/03/23 04:06:32;;;;;;;0.20;0.20;;;8.80;99.90;;;;;;5069733;28;20586;-76
2023/03/23 04:08:58;;;;;;;0.20;0.20;;;8.60;99.90;;;;;;5047026;28;20457;-77
2023/03/23 04:11:25;;;;;;;0.20;0.20;;;8.80;99.90;;;;;;5065469;28;20512;-77
2023/03/23 04:13:51;;;;;;;0.20;0.20;;;8.60;99.90;;;;;;5035683;28;20876;-75
2023/03/23 04:16:17;;;;;;;0.20;0.20;;;8.50;99.90;;;;;;5057887;28;20507;-77
2023/03/23 04:18:47;;;;;;;0.20;0.20;;;8.70;99.90;;;;;;5044941;23;20327;-75
2023/03/23 04:21:14;;;;;;;0.20;0.20;;;8.60;99.90;;;;;;5013246;28;20180;-76
2023/03/23 04:23:40;;;;;;;0.20;0.20;;;8.50;99.90;;;;;;5012377;28;20486;-76
2023/03/23 04:26:05;;;;;;;0.20;0.20;;;8.50;99.90;;;;;;5000082;28;20459;-77
2023/03/23 04:28:33;;;;;;;0.20;0.20;;;8.60;99.90;;;;;;5013641;28;20443;-77
2023/03/23 04:31:00;;;;;;;0.20;0.20;;;8.60;99.90;;;;;;5007752;28;20262;-77
2023/03/23 04:33:31;;;;;;;0.20;0.20;;;8.50;99.90;;;;;;5000585;28;20440;-75
2023/03/23 04:36:00;;;;;;;0.20;0.20;;;8.50;99.90;;;;;;5010148;28;20537;-76
2023/03/23 04:38:27;;;;;;;0.20;0.20;;;8.50;99.90;;;;;;5010143;28;20954;-76
2023/03/23 04:40:53;;;;;;;0.20;0.20;;;8.50;99.90;;;;;;5010844;28;20446;-77
2023/03/23 04:43:21;;;;;;;0.20;0.20;;;8.50;99.90;;;;;;5008741;28;20499;-76
2023/03/23 04:46:10;;;;;;;0.20;0.20;;;8.50;99.90;;;;;;5007631;28;20455;-75
2023/03/23 04:48:38;;;;;;;0.20;0.20;;;8.50;99.90;;;;;;5007871;28;20524;-76
2023/03/23 04:51:05;;;;;;;0.20;0.20;;;8.40;99.90;;;;;;5010471;28;20458;-76
2023/03/23 04:53:31;;;;;;;0.20;0.20;;;8.40;99.90;;;;;;5010009;28;20606;-76
2023/03/23 04:56:01;;;;;;;0.20;0.20;;;8.40;99.90;;;;;;5006863;28;20544;-76
2023/03/23 04:58:27;;;;;;;0.30;0.30;;;8.40;99.90;;;;;;4988779;28;20189;-76
2023/03/23 05:00:53;;;;;;;0.20;0.20;;;8.40;99.90;;;;;;5031041;22;20583;-76
2023/03/23 05:03:20;;;;;;;0.20;0.20;;;8.30;99.90;;;;;;5027194;28;20656;-76
2023/03/23 05:05:53;;;;;;;0.20;0.20;;;8.40;99.90;;;;;;5039135;22;20389;-76
2023/03/23 05:08:31;;;;;;;0.20;0.20;;;8.40;99.90;;;;;;5031633;28;20546;-79
2023/03/23 05:10:59;;;;;;;0.20;0.20;;;8.40;99.90;;;;;;5026285;28;20542;-75
2023/03/23 05:13:24;;;;;;;0.20;0.20;;;8.30;99.90;;;;;;5029254;28;20450;-76
2023/03/23 05:15:50;;;;;;;0.20;0.20;;;8.30;99.90;;;;;;5028736;28;20454;-76
2023/03/23 05:18:16;;;;;;;0.20;0.20;;;8.40;99.90;;;;;;5029533;28;20187;-76
2023/03/23 05:20:42;;;;;;;0.20;0.20;;;8.40;99.90;;;;;;5030012;28;20450;-76
2023/03/23 05:23:14;;;;;;;0.20;0.20;;;8.40;99.90;;;;;;5032313;28;20292;-77
2023/03/23 05:25:40;;;;;;;0.20;0.20;;;8.40;99.90;;;;;;5029505;28;20449;-76
2023/03/23 05:28:10;;;;;;;0.20;0.20;;;8.40;99.90;;;;;;5038286;23;20439;-76
2023/03/23 05:30:36;;;;;;;0.20;0.20;;;8.50;99.90;;;;;;4991476;28;20456;-76
2023/03/23 05:33:02;;;;;;;0.20;0.20;;;8.50;99.90;;;;;;4999689;28;20462;-76
2023/03/23 05:35:31;;;;;;;0.20;0.20;;;8.50;99.90;;;;;;5010855;28;20238;-75
2023/03/23 05:37:57;;;;;;;0.20;0.20;;;8.50;99.90;;;;;;5011565;28;20443;-79
2023/03/23 05:40:25;;;;;;;0.20;0.20;;;8.60;99.90;;;;;;5008695;28;20451;-76
2023/03/23 05:42:51;;;;;;;0.20;0.20;;;8.60;99.90;;;;;;5010004;28;20220;-76
2023/03/23 05:45:17;;;;;;;0.20;0.20;;;8.70;99.90;;;;;;5008315;28;20451;-76
2023/03/23 05:47:43;;;;;;;0.20;0.20;;;8.80;99.90;;;;;;5000614;28;20847;-76
2023/03/23 05:50:10;;;;;;;0.20;0.20;;;8.80;99.90;;;;;;5002810;28;20517;-76
2023/03/23 05:52:42;;;;;;;0.20;0.20;;;8.90;99.90;;;;;;5001648;28;20598;-75
2023/03/23 05:55:08;;;;;;;0.20;0.20;;;9.00;99.90;;;;;;5001074;28;20458;-79
2023/03/23 05:57:34;;;;;;;0.20;0.20;;;9.00;99.90;;;;;;5002393;28;20447;-79
2023/03/23 06:00:05;;;;;;;0.20;0.20;;;9.10;99.90;;;;;;5005846;28;20939;-77
2023/03/23 06:02:30;;;;;;;0.20;0.20;;;9.10;99.90;;;;;;4980230;28;22523;-76
2023/03/23 06:05:06;;;;;;;0.20;0.20;;;9.10;99.90;;;;;;4981349;28;20456;-77
2023/03/23 06:07:32;;;;;;;0.20;0.20;;;9.10;99.90;;;;;;4996074;28;20188;-76
2023/03/23 06:09:57;;;;;;;0.20;0.20;;;9.20;99.90;;;;;;5005520;28;20459;-77
2023/03/23 06:12:23;;;;;;;0.20;0.20;;;9.20;99.90;;;;;;5008581;28;20215;-76
2023/03/23 06:14:49;;;;;;;0.20;0.20;;;9.30;99.90;;;;;;5008557;28;20219;-77
2023/03/23 06:17:17;;;;;;;0.20;0.20;;;9.30;99.90;;;;;;5009743;28;20446;-77
2023/03/23 06:19:43;;;;;;;0.10;0.10;;;9.50;99.90;;;;;;4996012;28;20238;-76
2023/03/23 06:22:09;;;;;;;0.20;0.20;;;9.50;99.90;;;;;;5008048;28;20438;-76
2023/03/23 06:24:34;;;;;;;0.10;0.10;;;9.60;99.90;;;;;;4997737;28;20633;-76
2023/03/23 06:27:00;;;;;;;0.20;0.20;;;9.70;99.90;;;;;;4999964;28;20185;-76
2023/03/23 06:29:27;;;;;;;0.20;0.20;;;;;;;;;;5030020;23;20239;-79
2023/03/23 06:31:56;;;;;;;0.20;0.20;;;;;;;;;;5028553;28;20441;-79
2023/03/23 06:34:23;;;;;;;0.20;0.20;;;;;;;;;;5025402;28;20475;-77
2023/03/23 06:36:58;;;;;;;0.20;0.20;;;9.90;99.90;;;;;;5028692;28;20434;-76
2023/03/23 06:39:23;;;;;;;0.20;0.20;;;10.00;99.90;;;;;;5040835;23;20506;-77
2023/03/23 06:41:49;;;;;;;0.20;0.20;;;10.00;99.90;;;;;;5051854;28;21008;-77
2023/03/23 06:44:15;;;;;;;0.20;0.20;;;10.10;99.90;;;;;;5051637;28;20226;-77
2023/03/23 06:46:41;;;;;;;0.10;0.10;;;10.20;99.90;;;;;;5050941;28;20186;-78
2023/03/23 06:49:27;;;;;;;0.20;0.20;;;10.30;99.90;;;;;;5061340;22;20239;-77
2023/03/23 06:51:52;;;;;;;0.13;0.13;;;10.30;99.90;;;;;;5012211;28;20935;-79
2023/03/23 06:54:18;;;;;;;0.20;0.20;;;10.30;99.90;;;;;;5012758;28;20505;-75
2023/03/23 06:56:43;;;;;;;0.10;0.10;;;10.30;99.90;;;;;;5016637;28;20223;-75
2023/03/23 06:59:10;;;;;;;0.20;0.20;;;10.30;99.90;;;;;;5005995;28;20189;-78
2023/03/23 07:01:48;;;;;;;0.20;0.20;;;10.30;99.90;;;;;;5011577;28;20189;-75
2023/03/23 07:04:14;;;;;;;0.10;0.10;;;10.30;99.90;;;;;;5027555;23;20493;-78
2023/03/23 07:06:40;;;;;;;0.20;0.20;;;10.20;99.90;;;;;;5101423;23;20511;-78
2023/03/23 07:09:05;;;;;;;0.10;0.10;;;10.20;99.90;;;;;;5029866;28;20453;-78
2023/03/23 07:11:32;;;;;;;0.20;0.20;;;10.20;99.90;;;;;;5046668;28;20838;-79
2023/03/23 07:14:07;;;;;;;0.20;0.20;;;10.10;99.90;;;;;;5044565;28;20195;-79
2023/03/23 07:16:33;;;;;;;0.20;0.20;;;10.00;99.90;;;;;;5042206;28;20502;-79
2023/03/23 07:18:59;;;;;;;0.20;0.20;;;10.10;99.90;;;;;;5042160;28;20437;-76
2023/03/23 07:21:25;;;;;;;0.20;0.20;;;10.10;99.90;;;;;;5052663;28;20241;-79
2023/03/23 07:23:50;;;;;;;0.20;0.20;;;9.90;99.90;;;;;;5056188;22;20501;-77
2023/03/23 07:26:16;;;;;;;0.10;0.10;;;10.10;99.90;;;;;;5050823;28;20565;-76
2023/03/23 07:28:46;;;;;;;0.20;0.20;;;10.20;99.90;;;;;;5046128;28;20195;-76
2023/03/23 07:31:12;;;;;;;0.20;0.20;;;10.10;99.90;;;;;;5042584;28;20478;-78
2023/03/23 07:33:37;;;;;;;0.20;0.20;;;10.20;99.90;;;;;;5049430;22;20505;-78
2023/03/23 07:36:03;;;;;;;0.20;0.20;;;10.00;99.90;;;;;;5041246;28;20270;-78
2023/03/23 07:38:29;;;;;;;0.20;0.20;;;10.10;99.90;;;;;;5044005;28;20195;-81
2023/03/23 07:40:56;;;;;;;0.20;0.20;;;10.10;99.90;;;;;;5043972;28;20451;-78
2023/03/23 07:43:22;;;;;;;0.20;0.20;;;10.10;99.90;;;;;;5046604;28;20555;-80
2023/03/23 07:45:48;;;;;;;0.20;0.20;;;10.20;99.90;;;;;;5077753;22;20577;-79
2023/03/23 07:48:14;;;;;;;0.20;0.20;;;10.10;99.90;;;;;;5023008;28;20454;-79
2023/03/23 07:50:40;;;;;;;0.20;0.20;;;10.10;99.90;;;;;;5029368;28;20527;-79
2023/03/23 07:53:06;;;;;;;0.10;0.10;;;10.10;99.90;;;;;;5028461;28;20449;-78
2023/03/23 07:55:32;;;;;;;0.20;0.20;;;10.10;99.90;;;;;;5031053;28;20446;-79
2023/03/23 07:57:57;;;;;;;0.20;0.20;;;10.10;99.90;;;;;;5029437;28;20238;-78
2023/03/23 08:00:23;;;;;;;0.10;0.10;;;10.20;99.90;;;;;;5012844;28;20443;-80
2023/03/23 08:02:58;;;;;;;0.10;0.10;;;10.50;99.90;;;;;;5009362;28;20218;-79
2023/03/23 08:05:25;;;;;;;0.20;0.20;;;10.50;99.90;;;;;;5032687;28;20428;-79
2023/03/23 08:07:53;;;;;;;0.20;0.20;;;10.50;99.90;;;;;;5031329;28;20444;-79
2023/03/23 08:10:21;;;;;;;0.20;0.20;;;10.50;99.90;;;;;;5028112;28;20439;-78
2023/03/23 08:12:51;;;;;;;0.10;0.10;;;10.70;99.90;;;;;;5013058;28;20469;-75
2023/03/23 08:15:18;;;;;;;0.10;0.10;;;10.80;99.90;;;;;;5017836;28;20517;-78
2023/03/23 08:17:44;;;;;;;0.10;0.10;;;11.00;99.90;;;;;;5030405;28;20438;-79
2023/03/23 08:20:14;;;;;;;0.10;0.10;;;11.10;99.90;;;;;;5032621;28;20421;-78
2023/03/23 08:22:44;;;;;;;0.20;0.20;;;11.00;99.90;;;;;;5030083;28;21140;-76
2023/03/23 08:25:12;;;;;;;0.20;0.20;;;10.90;99.90;;;;;;5031646;28;20454;-78
2023/03/23 08:27:43;;;;;;;0.20;0.20;;;10.80;99.90;;;;;;5031833;28;20414;-78
2023/03/23 08:30:14;;;;;;;0.20;0.20;;;10.80;99.90;;;;;;5031454;28;20514;-79
2023/03/23 08:32:40;;;;;;;0.10;0.10;;;10.90;99.90;;;;;;5029330;28;20437;-78
2023/03/23 08:35:08;;;;;;;0.10;0.10;;;10.80;99.90;;;;;;5029214;28;20453;-81
2023/03/23 08:37:34;;;;;;;0.20;0.20;;;10.80;99.90;;;;;;5030230;28;20560;-81
2023/03/23 08:40:00;;;;;;;0.10;0.10;;;10.80;99.90;;;;;;5032094;28;20561;-78
2023/03/23 08:42:25;;;;;;;0.10;0.10;;;10.70;99.90;;;;;;5013647;28;20847;-78
2023/03/23 08:44:52;;;;;;;0.10;0.10;;;10.70;99.90;;;;;;5024154;28;20333;-81
2023/03/23 08:47:18;;;;;;;0.20;0.20;;;10.80;99.90;;;;;;5057932;28;20223;-78
2023/03/23 08:49:45;;;;;;;0.20;0.20;;;10.90;99.90;;;;;;5057896;28;20457;-79
2023/03/23 08:52:11;;;;;;;0.20;0.20;;;11.10;99.90;;;;;;5042438;28;20449;-78
2023/03/23 08:54:37;;;;;;;0.10;0.10;;;11.40;99.90;;;;;;5069971;28;20458;-78
2023/03/23 08:57:04;;;;;;;0.20;0.20;;;11.70;99.90;;;;;;5071432;28;20768;-78
2023/03/23 08:59:29;;;;;;;0.10;0.10;;;11.80;99.90;;;;;;5068069;28;20556;-81
2023/03/23 09:01:55;;;;;;;0.10;0.10;;;12.00;99.90;;;;;;5063712;28;20669;-79
2023/03/23 09:04:20;;;;;;;0.10;0.10;;;11.80;99.90;;;;;;5069053;28;20221;-79
2023/03/23 09:06:46;;;;;;;0.10;0.10;;;11.90;99.90;;;;;;5066338;28;20267;-82
2023/03/23 09:09:34;;;;;;;0.13;0.13;;;;;;;;;;5072854;22;20249;-80
2023/03/23 09:12:00;;;;;;;0.20;0.20;;;;;;;;;;5046775;28;20493;-81
2023/03/23 09:14:26;;;;;;;0.10;0.10;;;12.10;99.90;;;;;;5045695;28;20446;-81
2023/03/23 09:16:52;;;;;;;0.20;0.20;;;11.70;99.90;;;;;;5045126;28;20446;-78
2023/03/23 09:19:18;;;;;;;0.10;0.10;;;12.10;99.90;;;;;;5049832;28;20449;-81
2023/03/23 09:21:45;;;;;;;0.10;0.10;;;12.40;99.90;;;;;;5021217;28;20248;-80
2023/03/23 09:24:10;;;;;;;0.10;0.10;;;12.40;99.90;;;;;;5018452;28;20481;-79
2023/03/23 09:26:36;;;;;;;0.10;0.10;;;12.50;99.90;;;;;;5045929;28;20441;-80
2023/03/23 09:29:02;;;;;;;0.10;0.10;;;12.80;99.90;;;;;;5044590;28;20194;-84
2023/03/23 09:31:27;;;;;;;0.10;0.10;;;12.50;99.90;;;;;;5049724;28;20194;-83
2023/03/23 09:33:56;;;;;;;0.20;0.20;;;12.20;99.90;;;;;;5050880;28;20223;-84
2023/03/23 09:36:25;;;;;;;0.13;0.13;;;12.00;99.90;;;;;;5040250;23;20303;-83
2023/03/23 09:38:55;;;;;;;0.10;0.10;;;12.00;99.90;;;;;;5032632;28;20935;-83
2023/03/23 09:41:28;;;;;;;0.10;0.10;;;;;;;;;;5010067;28;20489;-82
2023/03/23 09:44:46;;;;;;;0.20;0.20;;;11.70;99.90;;;;;;5033229;28;20482;-80
2023/03/23 09:48:04;;;;;;;0.10;0.10;;;11.60;99.90;;;;;;5046624;22;20506;-82
2023/03/23 09:53:17;;;;;;;0.10;0.10;;;12.00;99.90;;;;;;5123751;22;20579;-83
2023/03/23 09:58:35;;;;;;;0.10;0.10;;;12.60;99.90;;;;;;4992224;28;20494;-85
2023/03/23 10:01:08;;;;;;;0.10;0.10;;;12.30;99.90;;;;;;4997388;28;20479;-82
2023/03/23 10:04:01;;;;;;;0.20;0.20;;;12.40;99.90;;;;;;5055045;23;20572;-81
2023/03/23 10:06:27;;;;;;;0.10;0.10;;;13.10;99.90;;;;;;5067894;28;20486;-80
2023/03/23 10:08:56;;;;;;;0.10;0.10;;;13.60;99.90;;;;;;5070105;28;20456;-81
2023/03/23 10:11:49;;;;;;;0.10;0.10;;;13.40;99.90;;;;;;5101161;22;20241;-81
2023/03/23 10:15:09;;;;;;;0.10;0.10;;;12.60;99.90;;;;;;5069292;28;21818;-81
2023/03/23 10:17:47;;;;;;;0.10;0.10;;;12.20;99.90;;;;;;5052120;28;20451;-81
2023/03/23 10:20:14;;;;;;;0.10;0.10;;;12.00;99.90;;;;;;5051430;28;20432;-80
2023/03/23 10:23:06;;;;;;;0.10;0.10;;;12.50;99.90;;;;;;5072096;28;20539;-80
2023/03/23 10:25:35;;;;;;;0.10;0.10;;;;;;;;;;5015411;28;20464;-80
2023/03/23 10:28:10;;;;;;;0.10;0.10;;;;;;;;;;5042488;23;20601;-81
2023/03/23 10:30:41;;;;;;;0.10;0.10;;;;;;;;;;5052888;28;20519;-80
2023/03/23 10:33:31;;;;;;;0.10;0.10;;;;;;;;;;5037627;28;21083;-79
2023/03/23 10:36:10;;;;;;;0.10;0.10;;;;;;;;;;5055348;28;20464;-80
2023/03/23 10:38:42;;;;;;;0.10;0.10;;;;;;;;;;5165294;22;20496;-80
2023/03/23 10:41:29;;;;;;;0.00;0.00;;;;;;;;;;5035682;28;20845;-80
2023/03/23 10:43:54;;;;;;;0.10;0.10;;;14.80;99.90;;;;;;5052823;28;21027;-80
2023/03/23 10:46:23;;;;;;;0.10;0.10;;;;;;;;;;5122925;22;20485;-83
2023/03/23 10:48:50;;;;;;;0.10;0.10;;;;;;;;;;5053462;28;20655;-81
2023/03/23 10:51:19;;;;;;;0.10;0.10;;;;;;;;;;5046522;22;20484;-80
2023/03/23 10:53:47;;;;;;;0.10;0.10;;;;;;;;;;5054308;28;20817;-82
2023/03/23 10:56:43;;;;;;;0.10;0.10;;;;;;;;;;5051631;23;21078;-82
2023/03/23 10:59:28;;;;;;;0.10;0.10;;;17.50;99.90;;;;;;5055280;28;20503;-82
2023/03/23 11:02:00;;;;;;;0.10;0.10;;;17.70;99.90;;;;;;5054707;28;20444;-82
2023/03/23 11:04:26;;;;;;;0.10;0.00;;;;;;;;;;5146992;22;20588;-81
2023/03/23 11:07:19;;;;;;;0.10;0.10;;;17.90;99.90;;;;;;5028607;28;20507;-81
2023/03/23 11:09:53;;;;;;;0.10;0.10;;;16.80;99.90;;;;;;5031585;28;20442;-82
2023/03/23 11:12:20;;;;;;;0.10;0.10;;;17.00;99.90;;;;;;5139094;22;20548;-81
2023/03/23 11:14:46;;;;;;;0.10;0.00;;;16.50;99.90;;;;;;5076119;22;20499;-84
2023/03/23 11:17:24;;;;;;;0.10;0.10;;;;;;;;;;5075928;28;20440;-85
2023/03/23 11:19:50;;;;;;;0.10;0.10;;;16.00;99.90;;;;;;5070208;28;20444;-84
2023/03/23 11:22:26;;;;;;;0.10;0.10;;;15.20;99.90;;;;;;5054169;28;20440;-86
2023/03/23 11:25:00;;;;;;;0.10;0.10;;;15.10;99.90;;;;;;5051195;28;20996;-86
2023/03/23 11:27:28;;;;;;;0.10;0.10;;;15.90;99.90;;;;;;5053132;28;21025;-84
2023/03/23 11:30:08;;;;;;;0.10;0.10;;;17.00;99.90;;;;;;5054431;28;20450;-86
2023/03/23 11:32:35;;;;;;;0.10;0.00;;;16.60;99.90;;;;;;5068795;28;20464;-84
2023/03/23 11:35:05;;;;;;;0.10;0.10;;;16.80;99.90;;;;;;5053746;28;20795;-85
2023/03/23 11:37:52;;;;;;;0.10;0.10;;;16.30;99.90;;;;;;5070586;28;20451;-84
2023/03/23 11:40:24;;;;;;;0.10;0.10;;;16.50;99.90;;;;;;5071486;28;20475;-84
2023/03/23 11:42:57;;;;;;;0.00;0.00;;;16.90;99.90;;;;;;5050061;22;20867;-85
2023/03/23 11:45:35;;;;;;;0.00;0.00;;;17.30;99.90;;;;;;5046206;28;20438;-88
2023/03/23 11:48:34;;;;;;;0.00;0.00;;;17.40;99.90;;;;;;5022906;28;20548;-85
2023/03/23 11:51:27;;;;;;;0.00;0.00;;;16.00;99.90;;;;;;5009515;28;20946;-86
2023/03/23 11:54:13;;;;;;;0.00;0.00;;;14.90;99.90;;;;;;5029144;28;21005;-86
2023/03/23 11:56:46;;;;;;;0.00;0.00;;;14.40;99.90;;;;;;5008973;28;20852;-85
2023/03/23 11:59:26;;;;;;;0.00;0.00;;;15.50;99.90;;;;;;5029326;28;20457;-85
2023/03/23 12:02:14;;;;;;;0.00;0.00;;;16.30;99.90;;;;;;5025279;28;20438;-86
2023/03/23 12:05:17;;;;;;;0.00;0.00;;;15.60;99.90;;;;;;5014447;28;20536;-84
2023/03/23 12:08:06;;;;;;;0.00;0.00;;;15.30;99.90;;;;;;5029026;28;20441;-84
2023/03/23 12:10:55;;;;;;;0.00;0.00;;;;;;;;;;5028494;28;20971;-84
2023/03/23 12:14:00;;;;;;;0.00;0.00;;;17.10;99.90;;;;;;5029940;28;20438;-86
2023/03/23 12:16:46;;;;;;;0.00;0.00;;;18.30;99.90;;;;;;5016469;22;20492;-86
2023/03/23 12:19:33;;;;;;;0.00;0.00;;;18.70;99.90;;;;;;5044377;28;20452;-85
2023/03/23 12:22:11;;;;;;;0.00;0.00;;;17.80;99.90;;;;;;5073958;28;20420;-86
2023/03/23 12:24:59;;;;;;;0.00;0.00;;;18.00;99.90;;;;;;5051514;28;20968;-87
2023/03/23 12:27:45;;;;;;;0.00;0.00;;;18.10;99.90;;;;;;5046862;28;20448;-86
2023/03/23 12:30:38;;;;;;;0.00;0.00;;;18.70;99.90;;;;;;5072233;28;20530;-85
2023/03/23 12:33:22;;;;;;;0.00;0.00;;;19.90;99.90;;;;;;5073702;28;20432;-86
2023/03/23 12:36:21;;;;;;;0.00;0.00;;;19.70;99.90;;;;;;5070102;28;20433;-85
2023/03/23 12:39:13;;;;;;;0.00;0.00;;;19.60;99.90;;;;;;5053942;28;20436;-86
2023/03/23 12:41:42;;;;;;;0.00;0.00;;;;;;;;;;5064206;28;20451;-86
2023/03/23 12:44:11;;;;;;;0.00;0.00;;;20.10;99.90;;;;;;5070943;28;20570;-86
2023/03/23 12:46:58;;;;;;;0.00;0.00;;;20.20;99.90;;;;;;5053158;28;20814;-85
2023/03/23 12:49:39;;;;;;;0.00;0.00;;;20.20;99.90;;;;;;5074316;22;20488;-87
2023/03/23 12:52:29;;;;;;;0.00;0.00;;;19.40;99.90;;;;;;5045314;28;20437;-85
2023/03/23 12:55:14;;;;;;;0.00;0.00;;;19.40;99.90;;;;;;5034525;28;20449;-84
2023/03/23 12:58:03;;;;;;;0.00;0.00;;;19.90;99.90;;;;;;5056212;22;20566;-84
2023/03/23 13:00:53;;;;;;;0.00;0.00;;;19.90;99.90;;;;;;5050227;28;20531;-86
2023/03/23 13:03:38;;;;;;;0.00;0.00;;;20.30;99.90;;;;;;5047614;28;21160;-87
2023/03/23 13:06:34;;;;;;;0.00;0.00;;;20.40;99.90;;;;;;5033562;28;20438;-87
2023/03/23 13:09:06;;;;;;;0.00;0.00;;;20.70;99.90;;;;;;5029063;28;20556;-88
2023/03/23 13:11:43;;;;;;;0.00;0.00;;;19.40;99.90;;;;;;5052565;28;20421;-87
2023/03/23 13:14:20;;;;;;;0.00;0.00;;;19.50;99.90;;;;;;5050558;28;20455;-88
2023/03/23 13:17:13;;;;;;;0.00;0.00;;;18.70;99.90;;;;;;5032521;28;20447;-87
2023/03/23 13:19:57;;;;;;;0.00;0.00;;;19.70;99.90;;;;;;5034137;28;20488;-87
2023/03/23 13:22:52;;;;;;;0.00;0.00;;;19.60;99.90;;;;;;5032351;28;20448;-88
2023/03/23 13:25:41;;;;;;;0.00;0.00;;;20.30;99.90;;;;;;5049087;28;20445;-88
2023/03/23 13:28:25;;;;;;;0.00;0.00;;;20.70;99.90;;;;;;5132067;27;21139;-89
2023/03/23 13:31:00;;;;;;;0.00;0.00;;;19.60;99.90;;;;;;5109073;28;20468;-88
2023/03/23 13:33:33;;;;;;;0.00;0.00;;;19.10;99.90;;;;;;5129957;28;20444;-88